createdAt,value
2022-12-20T00:00:57.086Z,6.78
2022-12-20T00:03:24.548Z,6.35
2022-12-20T00:05:51.810Z,6.18
2022-12-20T00:08:18.958Z,5.35
2022-12-20T00:10:47.031Z,4.60
2022-12-20T00:13:14.511Z,5.80
2022-12-20T00:15:42.133Z,3.40
2022-12-20T00:18:09.447Z,8.07
2022-12-20T00:20:37.243Z,4.75
2022-12-20T00:23:04.301Z,5.40
2022-12-20T00:25:31.758Z,3.97
2022-12-20T00:27:59.080Z,7.15
2022-12-20T00:30:26.481Z,5.38
2022-12-20T00:32:54.338Z,6.07
2022-12-20T00:35:21.754Z,6.03
2022-12-20T00:37:49.043Z,5.00
2022-12-20T00:40:16.239Z,3.53
2022-12-20T00:42:43.695Z,4.80
2022-12-20T00:45:12.597Z,3.60
2022-12-20T00:47:39.785Z,6.05
2022-12-20T00:50:07.325Z,5.13
2022-12-20T00:52:34.422Z,3.65
2022-12-20T00:55:01.849Z,6.07
2022-12-20T00:57:28.860Z,7.20
2022-12-20T00:59:55.936Z,4.05
2022-12-20T01:02:23.358Z,4.25
2022-12-20T01:04:50.881Z,4.18
2022-12-20T01:07:19.662Z,4.00
2022-12-20T01:09:47.021Z,6.05
2022-12-20T01:12:14.765Z,4.18
2022-12-20T01:14:42.210Z,6.15
2022-12-20T01:17:09.232Z,6.82
2022-12-20T01:19:36.763Z,5.38
2022-12-20T01:22:06.285Z,6.75
2022-12-20T01:24:35.745Z,4.63
2022-12-20T01:27:02.841Z,7.35
2022-12-20T01:29:30.587Z,6.00
2022-12-20T01:31:57.769Z,4.93
2022-12-20T01:34:24.984Z,6.30
2022-12-20T01:36:52.413Z,5.80
2022-12-20T01:39:19.830Z,5.20
2022-12-20T01:41:47.135Z,5.95
2022-12-20T01:44:17.429Z,5.90
2022-12-20T01:46:46.188Z,7.10
2022-12-20T01:49:19.653Z,5.95
2022-12-20T01:54:16.885Z,4.72
2022-12-20T01:56:45.833Z,6.60
2022-12-20T01:59:13.614Z,6.10
2022-12-20T02:01:42.479Z,5.28
2022-12-20T02:04:10.795Z,6.93
2022-12-20T02:06:38.407Z,7.78
2022-12-20T02:09:07.011Z,5.50
2022-12-20T02:11:53.277Z,6.22
2022-12-20T02:14:36.307Z,7.63
2022-12-20T02:17:17.120Z,10.55
2022-12-20T02:19:55.285Z,6.75
2022-12-20T02:22:40.602Z,7.10
2022-12-20T02:25:08.000Z,7.60
2022-12-20T02:28:13.837Z,6.18
2022-12-20T02:30:43.172Z,7.38
2022-12-20T02:33:14.643Z,6.70
2022-12-20T02:35:43.021Z,7.80
2022-12-20T02:38:30.194Z,7.43
2022-12-20T02:41:03.650Z,7.68
2022-12-20T02:43:51.168Z,6.05
2022-12-20T02:46:20.195Z,9.00
2022-12-20T02:48:48.733Z,5.40
2022-12-20T02:51:17.119Z,7.63
2022-12-20T02:53:44.702Z,5.10
2022-12-20T02:56:14.793Z,5.82
2022-12-20T02:59:05.759Z,8.93
2022-12-20T03:01:35.697Z,7.63
2022-12-20T03:04:06.647Z,7.20
2022-12-20T03:06:36.376Z,5.85
2022-12-20T03:09:03.713Z,9.70
2022-12-20T03:11:30.986Z,7.57
2022-12-20T03:13:58.446Z,6.43
2022-12-20T03:16:25.675Z,7.75
2022-12-20T03:18:53.320Z,5.32
2022-12-20T03:21:21.006Z,6.75
2022-12-20T03:23:48.336Z,5.93
2022-12-20T03:26:15.921Z,10.27
2022-12-20T03:28:43.045Z,8.73
2022-12-20T03:31:10.375Z,6.13
2022-12-20T03:33:37.809Z,5.28
2022-12-20T03:36:07.593Z,7.22
2022-12-20T03:38:34.724Z,7.25
2022-12-20T03:41:02.051Z,7.70
2022-12-20T03:43:29.437Z,5.65
2022-12-20T03:45:56.958Z,8.65
2022-12-20T03:48:24.403Z,7.72
2022-12-20T03:50:51.726Z,5.35
2022-12-20T03:53:19.110Z,7.95
2022-12-20T03:55:46.309Z,6.72
2022-12-20T03:58:13.798Z,5.05
2022-12-20T04:00:41.390Z,8.15
2022-12-20T04:03:08.623Z,7.90
2022-12-20T04:05:35.714Z,6.28
2022-12-20T04:08:03.229Z,5.90
2022-12-20T04:10:30.513Z,6.40
2022-12-20T04:12:57.744Z,8.32
2022-12-20T04:15:25.276Z,6.18
2022-12-20T04:17:52.979Z,7.05
2022-12-20T04:20:20.225Z,5.65
2022-12-20T04:22:48.686Z,6.97
2022-12-20T04:25:16.583Z,7.10
2022-12-20T04:27:44.317Z,9.88
2022-12-20T04:30:12.223Z,7.97
2022-12-20T04:32:39.524Z,5.68
2022-12-20T04:35:06.954Z,6.80
2022-12-20T04:37:36.365Z,5.47
2022-12-20T04:40:03.820Z,7.57
2022-12-20T04:42:31.221Z,4.95
2022-12-20T04:44:58.279Z,5.10
2022-12-20T04:47:25.872Z,7.25
2022-12-20T04:49:53.589Z,6.97
2022-12-20T04:52:45.486Z,7.85
2022-12-20T04:55:14.605Z,7.22
2022-12-20T04:57:41.773Z,6.82
2022-12-20T05:00:09.415Z,7.47
2022-12-20T05:02:36.975Z,6.10
2022-12-20T05:05:06.597Z,7.50
2022-12-20T05:07:33.723Z,7.03
2022-12-20T05:10:01.398Z,6.55
2022-12-20T05:12:28.687Z,7.20
2022-12-20T05:14:55.808Z,7.72
2022-12-20T05:17:23.013Z,8.77
2022-12-20T05:19:50.181Z,8.45
2022-12-20T05:22:35.990Z,7.30
2022-12-20T05:25:22.238Z,6.65
2022-12-20T05:27:49.590Z,7.93
2022-12-20T05:30:17.002Z,10.57
2022-12-20T05:32:44.621Z,6.78
2022-12-20T05:35:11.699Z,6.60
2022-12-20T05:37:39.059Z,4.82
2022-12-20T05:40:06.918Z,8.23
2022-12-20T05:42:36.552Z,7.95
2022-12-20T05:45:05.919Z,8.13
2022-12-20T05:47:35.806Z,7.80
2022-12-20T05:50:04.511Z,6.55
2022-12-20T05:52:31.741Z,5.70
2022-12-20T05:54:59.015Z,6.63
2022-12-20T05:57:26.618Z,7.63
2022-12-20T05:59:53.655Z,6.30
2022-12-20T06:02:21.227Z,7.00
2022-12-20T06:04:48.581Z,6.25
2022-12-20T06:07:15.768Z,6.95
2022-12-20T06:09:43.092Z,4.95
2022-12-20T06:12:10.848Z,5.68
2022-12-20T06:14:37.871Z,6.55
2022-12-20T06:17:08.359Z,7.13
2022-12-20T06:19:35.931Z,10.48
2022-12-20T06:22:03.550Z,5.55
2022-12-20T06:24:31.210Z,8.65
2022-12-20T06:26:59.090Z,6.00
2022-12-20T06:29:26.639Z,3.95
2022-12-20T06:31:55.548Z,6.10
2022-12-20T06:34:23.613Z,10.00
2022-12-20T06:36:52.898Z,6.30
2022-12-20T06:39:20.390Z,7.10
2022-12-20T06:41:47.815Z,8.57
2022-12-20T06:44:15.565Z,8.85
2022-12-20T06:46:43.156Z,7.25
2022-12-20T06:49:10.822Z,7.38
2022-12-20T06:51:38.061Z,2.97
2022-12-20T06:54:05.909Z,5.05
2022-12-20T06:56:39.247Z,4.85
2022-12-20T06:59:08.820Z,6.07
2022-12-20T07:01:36.824Z,5.13
2022-12-20T07:04:06.925Z,3.95
2022-12-20T07:06:34.766Z,7.18
2022-12-20T07:09:02.553Z,8.25
2022-12-20T07:11:30.261Z,8.45
2022-12-20T07:13:58.144Z,6.10
2022-12-20T07:16:27.942Z,5.22
2022-12-20T07:18:55.734Z,7.90
2022-12-20T07:21:23.308Z,3.28
2022-12-20T07:23:51.105Z,4.63
2022-12-20T07:26:18.671Z,7.65
2022-12-20T07:28:46.386Z,2.78
2022-12-20T07:31:14.062Z,3.47
2022-12-20T07:33:49.100Z,6.35
2022-12-20T07:36:16.827Z,4.07
2022-12-20T07:38:44.075Z,4.25
2022-12-20T07:41:15.591Z,8.43
2022-12-20T07:43:44.975Z,3.63
2022-12-20T07:46:16.703Z,6.95
2022-12-20T07:48:44.896Z,6.43
2022-12-20T07:51:30.144Z,6.28
2022-12-20T07:54:13.799Z,5.95
2022-12-20T07:59:12.755Z,5.95
2022-12-20T08:01:41.409Z,6.78
2022-12-20T08:04:13.102Z,3.45
2022-12-20T08:06:42.143Z,4.57
2022-12-20T08:09:09.855Z,6.35
2022-12-20T08:11:38.335Z,5.78
2022-12-20T08:14:07.191Z,6.93
2022-12-20T08:16:34.995Z,4.32
2022-12-20T08:19:03.925Z,5.72
2022-12-20T08:21:31.560Z,2.90
2022-12-20T08:23:59.019Z,6.43
2022-12-20T08:26:28.636Z,8.88
2022-12-20T08:28:56.415Z,7.55
2022-12-20T08:31:23.789Z,6.75
2022-12-20T08:33:55.286Z,5.95
2022-12-20T08:36:22.520Z,3.55
2022-12-20T08:38:50.182Z,3.97
2022-12-20T08:41:17.648Z,3.40
2022-12-20T08:43:45.505Z,6.60
2022-12-20T08:46:13.589Z,3.92
2022-12-20T08:48:41.526Z,4.13
2022-12-20T08:51:10.714Z,5.55
2022-12-20T08:53:41.108Z,6.43
2022-12-20T08:56:10.229Z,5.97
2022-12-20T08:58:38.599Z,8.48
2022-12-20T09:01:10.299Z,5.22
2022-12-20T09:03:37.681Z,5.57
2022-12-20T09:06:14.945Z,6.18
2022-12-20T09:08:42.671Z,5.63
2022-12-20T09:11:17.601Z,4.25
2022-12-20T09:13:48.266Z,6.55
2022-12-20T09:16:18.808Z,6.18
2022-12-20T09:18:49.449Z,10.55
2022-12-20T09:21:19.691Z,5.25
2022-12-20T09:23:48.545Z,7.10
2022-12-20T09:26:17.234Z,7.45
2022-12-20T09:28:45.453Z,4.15
2022-12-20T09:31:14.762Z,6.18
2022-12-20T09:33:42.271Z,5.93
2022-12-20T09:36:17.577Z,9.02
2022-12-20T09:38:45.510Z,6.45
2022-12-20T09:41:28.984Z,7.22
2022-12-20T09:43:56.478Z,7.90
2022-12-20T09:46:27.774Z,7.15
2022-12-20T09:48:55.507Z,7.72
2022-12-20T09:51:29.376Z,7.85
2022-12-20T09:54:18.772Z,11.98
2022-12-20T09:56:46.953Z,11.43
2022-12-20T09:59:18.575Z,11.75
2022-12-20T10:01:51.895Z,9.57
2022-12-20T10:07:07.442Z,5.78
2022-12-20T10:09:55.008Z,7.75
2022-12-20T10:12:28.720Z,7.35
2022-12-20T10:15:02.417Z,4.85
2022-12-20T10:17:53.407Z,12.13
2022-12-20T10:20:21.252Z,8.30
2022-12-20T10:23:07.959Z,10.32
2022-12-20T10:25:35.711Z,6.95
2022-12-20T10:28:17.822Z,9.50
2022-12-20T10:30:45.698Z,7.03
2022-12-20T10:33:19.709Z,8.48
2022-12-20T10:35:47.187Z,10.35
2022-12-20T10:38:19.574Z,11.15
2022-12-20T10:41:19.596Z,8.00
2022-12-20T10:43:45.352Z,5.70
2022-12-20T10:46:13.446Z,11.70
2022-12-20T10:48:42.151Z,13.98
2022-12-20T10:51:15.169Z,5.60
2022-12-20T10:54:01.330Z,8.85
2022-12-20T10:56:32.909Z,11.07
2022-12-20T10:59:02.300Z,6.43
2022-12-20T11:01:34.326Z,8.88
2022-12-20T11:04:06.457Z,10.10
2022-12-20T11:06:40.436Z,6.13
2022-12-20T11:09:34.256Z,9.23
2022-12-20T11:12:14.832Z,9.88
2022-12-20T11:14:46.516Z,9.60
2022-12-20T11:17:23.207Z,9.80
2022-12-20T11:19:56.707Z,8.68
2022-12-20T11:22:32.587Z,10.02
2022-12-20T11:25:08.655Z,6.57
2022-12-20T11:27:36.298Z,9.52
2022-12-20T11:30:39.209Z,9.98
2022-12-20T11:33:07.401Z,11.85
2022-12-20T11:35:37.539Z,11.93
2022-12-20T11:38:12.961Z,9.43
2022-12-20T11:40:55.393Z,7.35
2022-12-20T11:44:15.256Z,8.55
2022-12-20T11:46:37.586Z,11.00
2022-12-20T11:49:17.811Z,9.63
2022-12-20T11:52:01.587Z,7.32
2022-12-20T11:54:37.755Z,15.10
2022-12-20T11:57:13.438Z,7.60
2022-12-20T11:59:49.532Z,10.50
2022-12-20T12:02:18.134Z,8.32
2022-12-20T12:04:52.490Z,14.25
2022-12-20T12:07:22.690Z,9.82
2022-12-20T12:09:50.191Z,8.48
2022-12-20T12:12:44.395Z,8.88
2022-12-20T12:15:29.577Z,9.68
2022-12-20T12:18:16.148Z,7.15
2022-12-20T12:21:10.320Z,11.60
2022-12-20T12:26:31.997Z,10.40
2022-12-20T12:31:32.796Z,31.30
2022-12-20T12:34:13.294Z,10.20
2022-12-20T12:36:51.281Z,7.95
2022-12-20T12:39:18.613Z,7.80
2022-12-20T12:41:55.160Z,11.23
2022-12-20T12:44:27.499Z,10.05
2022-12-20T12:47:00.363Z,11.60
2022-12-20T12:49:31.666Z,8.45
2022-12-20T12:52:07.277Z,7.88
2022-12-20T12:54:41.526Z,11.85
2022-12-20T12:57:15.622Z,10.93
2022-12-20T12:59:47.414Z,11.55
2022-12-20T13:02:15.257Z,11.95
2022-12-20T13:05:03.124Z,9.88
2022-12-20T13:07:36.639Z,11.48
2022-12-20T13:10:25.610Z,13.48
2022-12-20T13:12:55.225Z,11.20
2022-12-20T13:15:22.657Z,9.05
2022-12-20T13:17:53.294Z,10.43
2022-12-20T13:20:40.821Z,9.65
2022-12-20T13:23:13.859Z,10.15
2022-12-20T13:25:49.589Z,11.00
2022-12-20T13:28:18.874Z,10.68
2022-12-20T13:30:47.920Z,11.93
2022-12-20T13:33:24.595Z,9.40
2022-12-20T13:35:57.226Z,11.10
2022-12-20T13:38:40.314Z,13.37
2022-12-20T13:41:18.711Z,10.63
2022-12-20T13:43:47.243Z,12.10
2022-12-20T13:46:19.809Z,11.20
2022-12-20T13:48:47.314Z,16.30
2022-12-20T13:51:22.174Z,10.93
2022-12-20T13:54:00.239Z,11.50
2022-12-20T13:56:27.712Z,11.27
2022-12-20T13:58:58.823Z,9.00
2022-12-20T14:01:27.061Z,8.85
2022-12-20T14:03:54.678Z,9.00
2022-12-20T14:06:26.989Z,10.55
2022-12-20T14:08:54.696Z,15.02
2022-12-20T14:11:29.047Z,8.65
2022-12-20T14:14:00.812Z,13.32
2022-12-20T14:16:32.054Z,8.75
2022-12-20T14:19:08.648Z,12.50
2022-12-20T14:21:40.292Z,12.43
2022-12-20T14:24:13.049Z,11.35
2022-12-20T14:26:48.338Z,15.80
2022-12-20T14:29:20.512Z,22.75
2022-12-20T14:31:50.372Z,13.48
2022-12-20T14:34:30.125Z,21.15
2022-12-20T14:37:17.494Z,15.68
2022-12-20T14:39:59.853Z,20.30
2022-12-20T14:42:31.134Z,15.00
2022-12-20T14:45:12.182Z,14.93
2022-12-20T14:47:43.447Z,11.98
2022-12-20T14:50:30.896Z,9.63
2022-12-20T14:52:58.778Z,11.23
2022-12-20T14:55:32.149Z,11.10
2022-12-20T14:57:59.794Z,12.27
2022-12-20T15:00:37.185Z,12.13
2022-12-20T15:03:13.590Z,14.57
2022-12-20T15:05:46.418Z,12.05
2022-12-20T15:08:28.982Z,9.25
2022-12-20T15:11:13.308Z,11.27
2022-12-20T15:13:46.819Z,11.35
2022-12-20T15:16:15.883Z,22.17
2022-12-20T15:18:43.521Z,9.63
2022-12-20T15:21:15.721Z,11.98
2022-12-20T15:23:51.729Z,15.95
2022-12-20T15:26:20.864Z,20.50
2022-12-20T15:28:49.749Z,22.67
2022-12-20T15:31:23.765Z,27.58
2022-12-20T15:33:59.645Z,23.05
2022-12-20T15:36:28.607Z,24.13
2022-12-20T15:39:12.624Z,17.60
2022-12-20T15:41:42.904Z,15.65
2022-12-20T15:44:24.131Z,19.08
2022-12-20T15:46:52.274Z,11.88
2022-12-20T15:49:24.409Z,16.33
2022-12-20T15:51:53.011Z,14.30
2022-12-20T15:54:25.622Z,13.35
2022-12-20T15:56:53.759Z,13.87
2022-12-20T16:02:20.659Z,15.52
2022-12-20T16:04:48.156Z,13.65
2022-12-20T16:07:15.790Z,17.80
2022-12-20T16:09:43.465Z,18.98
2022-12-20T16:12:22.551Z,23.35
2022-12-20T16:14:49.935Z,21.92
2022-12-20T16:17:18.465Z,21.65
2022-12-20T16:19:47.407Z,19.40
2022-12-20T16:22:19.633Z,19.80
2022-12-20T16:24:50.171Z,14.88
2022-12-20T16:27:48.263Z,22.60
2022-12-20T16:30:16.070Z,28.88
2022-12-20T16:32:43.360Z,37.22
2022-12-20T16:35:23.478Z,17.33
2022-12-20T16:37:50.758Z,18.35
2022-12-20T16:40:18.977Z,14.80
2022-12-20T16:42:49.221Z,15.02
2022-12-20T16:45:21.272Z,17.27
2022-12-20T16:47:51.722Z,23.08
2022-12-20T16:50:19.642Z,16.45
2022-12-20T16:52:47.609Z,22.55
2022-12-20T16:55:16.599Z,15.27
2022-12-20T16:57:44.727Z,20.77
2022-12-20T17:00:17.276Z,15.85
2022-12-20T17:02:47.231Z,29.13
2022-12-20T17:05:42.329Z,15.00
2022-12-20T17:10:54.664Z,15.77
2022-12-20T17:13:22.275Z,27.50
2022-12-20T17:15:49.874Z,16.92
2022-12-20T17:18:18.122Z,24.90
2022-12-20T17:20:51.326Z,25.42
2022-12-20T17:26:06.649Z,15.23
2022-12-20T17:28:34.355Z,33.65
2022-12-20T17:31:07.800Z,34.95
2022-12-20T17:33:44.479Z,22.88
2022-12-20T17:36:11.850Z,17.20
2022-12-20T17:38:43.473Z,33.95
2022-12-20T17:41:31.650Z,26.15
2022-12-20T17:43:59.726Z,31.52
2022-12-20T17:46:35.034Z,42.97
2022-12-20T17:49:02.665Z,39.40
2022-12-20T17:51:31.149Z,23.55
2022-12-20T17:54:04.185Z,23.80
2022-12-20T17:56:36.295Z,38.70
2022-12-20T17:59:08.818Z,18.17
2022-12-20T18:01:36.406Z,36.65
2022-12-20T18:04:09.397Z,46.42
2022-12-20T18:06:42.465Z,34.40
2022-12-20T18:09:16.956Z,37.70
2022-12-20T18:11:47.152Z,31.92
2022-12-20T18:14:18.139Z,27.13
2022-12-20T18:16:45.987Z,46.22
2022-12-20T18:19:17.556Z,33.90
2022-12-20T18:21:51.548Z,70.30
2022-12-20T18:24:21.033Z,30.05
2022-12-20T18:26:48.580Z,49.08
2022-12-20T18:29:19.011Z,34.85
2022-12-20T18:31:46.663Z,49.58
2022-12-20T18:34:16.077Z,73.07
2022-12-20T18:36:43.541Z,45.47
2022-12-20T18:39:15.520Z,41.95
2022-12-20T18:41:44.429Z,67.00
2022-12-20T18:44:15.118Z,53.50
2022-12-20T18:46:44.335Z,94.95
2022-12-20T18:49:12.092Z,67.45
2022-12-20T18:51:41.823Z,63.38
2022-12-20T18:54:24.206Z,100.47
2022-12-20T18:56:51.452Z,50.33
2022-12-20T18:59:21.722Z,127.53
2022-12-20T19:01:51.573Z,104.22
2022-12-20T19:04:24.245Z,97.65
2022-12-20T19:06:56.740Z,406.75
2022-12-20T19:09:26.151Z,62.35
2022-12-20T19:12:01.207Z,92.22
2022-12-20T19:14:28.640Z,103.05
2022-12-20T19:17:02.236Z,45.35
2022-12-20T19:19:29.485Z,69.75
2022-12-20T19:22:00.171Z,131.85
2022-12-20T19:24:27.959Z,258.75
2022-12-20T19:26:55.233Z,156.15
2022-12-20T19:29:23.720Z,112.07
2022-12-20T19:32:13.454Z,98.85
2022-12-20T19:34:39.248Z,166.00
2022-12-20T19:37:06.984Z,99.90
2022-12-20T19:39:34.519Z,481.48
2022-12-20T19:42:26.529Z,130.63
2022-12-20T19:44:56.922Z,166.35
2022-12-20T19:47:28.144Z,75.93
2022-12-20T19:50:10.143Z,153.73
2022-12-20T19:52:42.210Z,93.95
2022-12-20T19:55:09.877Z,63.78
2022-12-20T19:57:40.289Z,210.80
2022-12-20T20:00:10.931Z,77.03
2022-12-20T20:02:43.674Z,140.75
2022-12-20T20:05:15.494Z,149.95
2022-12-20T20:07:44.157Z,175.82
2022-12-20T20:10:11.912Z,92.90
2022-12-20T20:12:41.152Z,115.80
2022-12-20T20:15:11.517Z,114.13
2022-12-20T20:17:39.424Z,154.95
2022-12-20T20:20:23.082Z,53.40
2022-12-20T20:22:52.920Z,173.70
2022-12-20T20:25:24.405Z,266.58
2022-12-20T20:27:55.567Z,72.25
2022-12-20T20:30:23.304Z,79.88
2022-12-20T20:32:53.179Z,152.57
2022-12-20T20:35:20.940Z,77.20
2022-12-20T20:37:49.174Z,189.38
2022-12-20T20:40:20.939Z,93.25
2022-12-20T20:42:49.677Z,106.68
2022-12-20T20:45:17.899Z,87.22
2022-12-20T20:47:46.859Z,74.47
2022-12-20T20:50:21.625Z,181.95
2022-12-20T20:52:49.744Z,109.68
2022-12-20T20:55:20.505Z,133.05
2022-12-20T20:57:51.103Z,167.45
2022-12-20T21:00:20.272Z,104.20
2022-12-20T21:02:48.170Z,249.57
2022-12-20T21:08:07.161Z,172.52
2022-12-20T21:10:37.305Z,100.65
2022-12-20T21:13:07.722Z,241.68
2022-12-20T21:15:36.264Z,359.30
2022-12-20T21:18:03.586Z,131.32
2022-12-20T21:20:31.158Z,88.97
2022-12-20T21:22:59.052Z,117.93
2022-12-20T21:25:26.324Z,92.95
2022-12-20T21:27:53.794Z,121.20
2022-12-20T21:30:21.089Z,316.50
2022-12-20T21:35:35.502Z,202.82
2022-12-20T21:38:03.403Z,237.77
2022-12-20T21:40:30.900Z,216.13
2022-12-20T21:43:00.485Z,157.25
2022-12-20T21:45:28.139Z,104.10
2022-12-20T21:48:01.167Z,107.05
2022-12-20T21:50:30.110Z,78.70
2022-12-20T21:52:57.362Z,174.25
2022-12-20T21:55:24.825Z,242.80
2022-12-20T21:57:51.961Z,190.77
2022-12-20T22:00:19.775Z,217.63
2022-12-20T22:02:47.270Z,206.80
2022-12-20T22:05:15.779Z,311.45
2022-12-20T22:07:42.862Z,358.63
2022-12-20T22:10:10.305Z,268.05
2022-12-20T22:12:37.693Z,317.02
2022-12-20T22:15:07.849Z,443.55
2022-12-20T22:17:35.617Z,103.22
2022-12-20T22:20:03.157Z,93.60
2022-12-20T22:22:30.871Z,306.90
2022-12-20T22:24:58.307Z,264.45
2022-12-20T22:27:25.632Z,246.35
2022-12-20T22:29:53.252Z,272.40
2022-12-20T22:32:20.571Z,296.77
2022-12-20T22:34:47.822Z,181.27
2022-12-20T22:37:14.974Z,80.25
2022-12-20T22:39:42.200Z,251.75
2022-12-20T22:42:15.055Z,244.07
2022-12-20T22:44:43.065Z,182.80
2022-12-20T22:47:10.166Z,422.17
2022-12-20T22:49:37.815Z,161.27
2022-12-20T22:52:07.583Z,75.10
2022-12-20T22:54:43.172Z,92.80
2022-12-20T22:57:11.960Z,169.07
2022-12-20T22:59:39.060Z,162.18
2022-12-20T23:02:06.865Z,91.80
2022-12-20T23:04:34.214Z,191.38
2022-12-20T23:07:01.367Z,220.30
2022-12-20T23:09:28.863Z,330.75
2022-12-20T23:12:15.016Z,88.47
2022-12-20T23:15:04.228Z,91.82
2022-12-20T23:17:32.891Z,254.88
2022-12-20T23:20:19.163Z,256.33
2022-12-20T23:22:46.252Z,161.80
2022-12-20T23:25:15.531Z,353.05
2022-12-20T23:27:43.820Z,453.00
2022-12-20T23:30:12.026Z,451.13
2022-12-20T23:32:44.210Z,344.88
2022-12-20T23:35:13.062Z,369.35
2022-12-20T23:37:41.130Z,83.28
2022-12-20T23:40:09.083Z,66.75
2022-12-20T23:42:36.636Z,113.22
2022-12-20T23:45:06.332Z,378.20
2022-12-20T23:47:33.879Z,99.00
2022-12-20T23:50:01.509Z,372.35
2022-12-20T23:52:28.835Z,220.30
2022-12-20T23:54:55.885Z,128.35
2022-12-20T23:57:23.073Z,198.38
2022-12-20T23:59:50.979Z,616.15
